createdAt,value
2018-11-26T00:00:34.964Z,24.40
2018-11-26T00:03:04.234Z,25.30
2018-11-26T00:05:32.634Z,25.85
2018-11-26T00:08:00.935Z,25.92
2018-11-26T00:10:40.541Z,24.85
2018-11-26T00:13:09.034Z,24.47
2018-11-26T00:15:37.563Z,23.57
2018-11-26T00:18:06.921Z,24.60
2018-11-26T00:20:36.036Z,24.12
2018-11-26T00:23:04.322Z,24.02
2018-11-26T00:25:32.610Z,24.52
2018-11-26T00:28:00.860Z,24.52
2018-11-26T00:30:29.111Z,23.38
2018-11-26T00:32:57.383Z,23.90
2018-11-26T00:35:25.644Z,23.70
2018-11-26T00:37:53.911Z,25.12
2018-11-26T00:40:22.198Z,23.10
2018-11-26T00:42:50.589Z,23.18
2018-11-26T00:45:18.869Z,26.45
2018-11-26T00:47:47.148Z,23.05
2018-11-26T00:50:15.500Z,23.45
2018-11-26T00:52:44.160Z,23.38
2018-11-26T00:55:19.169Z,24.25
2018-11-26T00:57:47.633Z,22.48
2018-11-26T01:00:16.034Z,23.87
2018-11-26T01:02:44.661Z,21.95
2018-11-26T01:05:27.699Z,21.37
2018-11-26T01:07:55.989Z,23.22
2018-11-26T01:10:24.259Z,22.45
2018-11-26T01:12:52.531Z,22.02
2018-11-26T01:15:20.880Z,21.23
2018-11-26T01:17:49.258Z,23.27
2018-11-26T01:20:17.676Z,22.77
2018-11-26T01:22:46.189Z,22.22
2018-11-26T01:25:21.340Z,22.35
2018-11-26T01:27:49.790Z,22.40
2018-11-26T01:30:18.279Z,22.15
2018-11-26T01:32:46.638Z,23.22
2018-11-26T01:35:14.908Z,21.93
2018-11-26T01:37:43.193Z,22.37
2018-11-26T01:40:13.380Z,23.02
2018-11-26T01:42:42.038Z,21.70
2018-11-26T01:45:10.883Z,21.35
2018-11-26T01:47:39.156Z,21.05
2018-11-26T01:50:07.844Z,22.42
2018-11-26T01:52:36.103Z,23.18
2018-11-26T01:55:04.410Z,21.60
2018-11-26T01:57:32.725Z,22.55
2018-11-26T02:00:01.012Z,22.20
2018-11-26T02:02:29.316Z,20.60
2018-11-26T02:04:57.675Z,21.70
2018-11-26T02:07:26.100Z,22.22
2018-11-26T02:09:54.485Z,21.68
2018-11-26T02:12:22.859Z,20.77
2018-11-26T02:14:51.213Z,22.65
2018-11-26T02:17:19.535Z,21.73
2018-11-26T02:19:47.832Z,21.25
2018-11-26T02:22:16.167Z,20.97
2018-11-26T02:24:44.504Z,21.60
2018-11-26T02:27:12.812Z,22.02
2018-11-26T02:29:41.103Z,21.48
2018-11-26T02:32:09.451Z,22.13
2018-11-26T02:34:37.748Z,20.97
2018-11-26T02:37:06.472Z,20.40
2018-11-26T02:39:34.854Z,20.23
2018-11-26T02:42:03.188Z,21.23
2018-11-26T02:44:31.668Z,19.50
2018-11-26T02:47:00.055Z,20.90
2018-11-26T02:49:28.357Z,19.75
2018-11-26T02:51:56.615Z,19.90
2018-11-26T02:54:24.866Z,22.07
2018-11-26T02:56:53.221Z,21.82
2018-11-26T02:59:21.490Z,20.43
2018-11-26T03:01:49.750Z,21.57
2018-11-26T03:04:18.007Z,20.65
2018-11-26T03:06:46.301Z,21.50
2018-11-26T03:09:14.565Z,20.37
2018-11-26T03:11:42.856Z,21.37
2018-11-26T03:14:11.156Z,20.48
2018-11-26T03:16:39.529Z,20.65
2018-11-26T03:19:07.896Z,22.17
2018-11-26T03:21:36.221Z,21.50
2018-11-26T03:24:04.535Z,19.77
2018-11-26T03:26:32.980Z,20.97
2018-11-26T03:29:01.241Z,21.65
2018-11-26T03:31:29.533Z,21.77
2018-11-26T03:33:57.836Z,20.57
2018-11-26T03:36:26.108Z,22.50
2018-11-26T03:38:55.157Z,22.75
2018-11-26T03:41:23.919Z,21.68
2018-11-26T03:43:52.185Z,22.10
2018-11-26T03:46:20.467Z,22.32
2018-11-26T03:48:48.724Z,22.60
2018-11-26T03:51:17.033Z,20.32
2018-11-26T03:53:45.304Z,20.97
2018-11-26T03:56:13.589Z,21.50
2018-11-26T03:58:42.032Z,21.42
2018-11-26T04:01:10.704Z,21.52
2018-11-26T04:03:39.199Z,21.48
2018-11-26T04:06:07.457Z,22.13
2018-11-26T04:08:35.710Z,21.48
2018-11-26T04:11:04.348Z,20.60
2018-11-26T04:13:32.616Z,21.12
2018-11-26T04:16:00.910Z,20.43
2018-11-26T04:18:29.193Z,21.85
2018-11-26T04:20:57.472Z,21.17
2018-11-26T04:23:25.806Z,20.08
2018-11-26T04:25:54.078Z,22.65
2018-11-26T04:28:22.383Z,21.20
2018-11-26T04:30:50.731Z,20.48
2018-11-26T04:33:19.148Z,20.75
2018-11-26T04:35:47.551Z,20.48
2018-11-26T04:38:15.901Z,20.20
2018-11-26T04:40:44.216Z,22.00
2018-11-26T04:43:12.542Z,21.62
2018-11-26T04:45:40.824Z,22.32
2018-11-26T04:48:09.093Z,20.72
2018-11-26T04:50:37.387Z,20.72
2018-11-26T04:53:05.644Z,22.13
2018-11-26T04:55:33.912Z,21.37
2018-11-26T04:58:02.242Z,21.60
2018-11-26T05:00:30.505Z,19.75
2018-11-26T05:02:58.836Z,20.90
2018-11-26T05:05:28.227Z,21.33
2018-11-26T05:07:55.439Z,22.02
2018-11-26T05:10:23.790Z,20.80
2018-11-26T05:12:52.605Z,21.62
2018-11-26T05:15:20.933Z,20.45
2018-11-26T05:17:49.236Z,20.35
2018-11-26T05:20:17.526Z,21.27
2018-11-26T05:22:45.795Z,22.02
2018-11-26T05:25:14.094Z,21.30
2018-11-26T05:27:42.444Z,21.70
2018-11-26T05:30:11.599Z,20.35
2018-11-26T05:32:39.929Z,21.10
2018-11-26T05:35:09.533Z,20.68
2018-11-26T05:37:37.800Z,20.88
2018-11-26T05:40:10.518Z,20.77
2018-11-26T05:42:38.824Z,21.05
2018-11-26T05:45:09.374Z,19.40
2018-11-26T05:47:37.648Z,21.85
2018-11-26T05:50:08.092Z,21.85
2018-11-26T05:52:36.996Z,21.33
2018-11-26T05:55:05.721Z,21.80
2018-11-26T05:57:34.148Z,21.27
2018-11-26T06:00:02.776Z,20.57
2018-11-26T06:02:31.265Z,21.68
2018-11-26T06:04:59.637Z,21.62
2018-11-26T06:07:27.940Z,22.67
2018-11-26T06:09:56.155Z,22.27
2018-11-26T06:12:24.457Z,22.13
2018-11-26T06:14:52.781Z,21.90
2018-11-26T06:17:21.157Z,21.17
2018-11-26T06:19:49.529Z,22.02
2018-11-26T06:22:17.784Z,20.90
2018-11-26T06:24:46.052Z,22.58
2018-11-26T06:27:14.432Z,22.13
2018-11-26T06:29:42.724Z,21.75
2018-11-26T06:32:11.092Z,22.02
2018-11-26T06:34:42.485Z,21.82
2018-11-26T06:37:07.787Z,22.22
2018-11-26T06:39:37.108Z,23.10
2018-11-26T06:42:06.126Z,22.27
2018-11-26T06:44:34.436Z,22.75
2018-11-26T06:47:02.757Z,23.95
2018-11-26T06:49:31.068Z,21.85
2018-11-26T06:51:59.342Z,22.40
2018-11-26T06:54:27.615Z,21.97
2018-11-26T06:56:55.914Z,22.60
2018-11-26T06:59:24.368Z,21.97
2018-11-26T07:01:52.657Z,22.67
2018-11-26T07:04:21.000Z,24.10
2018-11-26T07:06:49.364Z,23.20
2018-11-26T07:09:17.678Z,23.22
2018-11-26T07:11:46.092Z,22.55
2018-11-26T07:14:14.666Z,23.32
2018-11-26T07:16:43.267Z,26.25
2018-11-26T07:19:11.590Z,24.50
2018-11-26T07:21:39.860Z,26.68
2018-11-26T07:24:08.120Z,26.02
2018-11-26T07:26:36.455Z,25.92
2018-11-26T07:29:04.977Z,26.23
2018-11-26T07:31:33.280Z,25.25
2018-11-26T07:34:01.552Z,24.30
2018-11-26T07:36:29.837Z,25.82
2018-11-26T07:38:58.123Z,26.35
2018-11-26T07:41:26.456Z,26.37
2018-11-26T07:43:54.679Z,26.35
2018-11-26T07:46:23.049Z,26.70
2018-11-26T07:48:51.516Z,25.62
2018-11-26T07:51:19.934Z,25.95
2018-11-26T07:53:48.244Z,25.37
2018-11-26T07:56:16.740Z,27.95
2018-11-26T07:58:45.033Z,26.27
2018-11-26T08:01:13.314Z,25.45
2018-11-26T08:03:41.705Z,28.05
2018-11-26T08:06:09.964Z,28.83
2018-11-26T08:08:38.431Z,26.10
2018-11-26T08:11:07.487Z,26.48
2018-11-26T08:13:35.723Z,28.98
2018-11-26T08:16:04.053Z,28.92
2018-11-26T08:18:32.336Z,28.10
2018-11-26T08:21:00.608Z,27.50
2018-11-26T08:23:28.851Z,29.07
2018-11-26T08:25:57.308Z,30.88
2018-11-26T08:28:25.736Z,29.95
2018-11-26T08:30:54.260Z,27.65
2018-11-26T08:33:22.572Z,29.32
2018-11-26T08:35:55.255Z,28.98
2018-11-26T08:38:24.960Z,29.18
2018-11-26T08:40:58.594Z,28.92
2018-11-26T08:43:32.218Z,29.92
2018-11-26T08:46:04.893Z,31.12
2018-11-26T08:48:33.288Z,30.37
2018-11-26T08:51:02.523Z,30.05
2018-11-26T08:53:31.192Z,29.75
2018-11-26T08:55:59.796Z,32.58
2018-11-26T08:58:28.166Z,28.80
2018-11-26T09:01:01.876Z,32.28
2018-11-26T09:04:39.306Z,30.95
2018-11-26T09:07:07.680Z,31.25
2018-11-26T09:09:36.165Z,29.23
2018-11-26T09:12:04.623Z,31.60
2018-11-26T09:14:33.026Z,31.07
2018-11-26T09:17:02.097Z,32.53
2018-11-26T09:19:30.582Z,28.65
2018-11-26T09:21:58.984Z,28.50
2018-11-26T09:24:27.359Z,30.12
2018-11-26T09:26:55.769Z,30.65
2018-11-26T09:29:24.155Z,29.27
2018-11-26T09:31:52.492Z,31.62
2018-11-26T09:34:20.802Z,32.38
2018-11-26T09:36:49.252Z,31.60
2018-11-26T09:39:17.691Z,30.90
2018-11-26T09:41:46.167Z,32.67
2018-11-26T09:44:14.667Z,32.83
2018-11-26T09:46:43.069Z,33.73
2018-11-26T09:49:11.374Z,32.17
2018-11-26T09:51:42.118Z,32.83
2018-11-26T09:54:08.217Z,32.67
2018-11-26T09:56:36.593Z,33.58
2018-11-26T09:59:06.674Z,32.03
2018-11-26T10:01:35.331Z,32.23
2018-11-26T10:04:03.914Z,32.40
2018-11-26T10:06:32.499Z,34.40
2018-11-26T10:09:00.864Z,30.97
2018-11-26T10:11:30.759Z,30.82
2018-11-26T10:13:59.201Z,29.27
2018-11-26T10:16:28.376Z,29.77
2018-11-26T10:18:56.691Z,29.60
2018-11-26T10:21:24.935Z,27.67
2018-11-26T10:23:53.384Z,28.23
2018-11-26T10:26:21.800Z,29.02
2018-11-26T10:28:50.149Z,28.60
2018-11-26T10:31:18.516Z,28.92
2018-11-26T10:33:47.086Z,27.13
2018-11-26T10:36:15.593Z,28.15
2018-11-26T10:38:43.995Z,28.05
2018-11-26T10:41:12.297Z,25.95
2018-11-26T10:43:40.541Z,27.95
2018-11-26T10:46:08.785Z,29.77
2018-11-26T10:48:37.070Z,29.63
2018-11-26T10:51:05.824Z,29.27
2018-11-26T10:53:34.067Z,28.32
2018-11-26T10:56:02.372Z,26.42
2018-11-26T10:58:30.668Z,29.12
2018-11-26T11:01:01.920Z,26.93
2018-11-26T11:03:30.267Z,27.27
2018-11-26T11:05:58.508Z,27.05
2018-11-26T11:08:26.868Z,26.65
2018-11-26T11:10:55.219Z,27.87
2018-11-26T11:13:23.611Z,28.55
2018-11-26T11:15:51.972Z,26.90
2018-11-26T11:18:20.287Z,26.85
2018-11-26T11:20:48.541Z,26.23
2018-11-26T11:23:16.891Z,27.02
2018-11-26T11:25:45.177Z,25.68
2018-11-26T11:28:13.465Z,26.45
2018-11-26T11:30:41.783Z,26.80
2018-11-26T11:35:37.579Z,26.50
2018-11-26T11:38:05.823Z,26.00
2018-11-26T11:40:34.068Z,26.48
2018-11-26T11:43:02.374Z,26.27
2018-11-26T11:45:32.411Z,26.95
2018-11-26T11:48:00.704Z,25.48
2018-11-26T11:50:29.158Z,26.05
2018-11-26T11:52:57.701Z,27.00
2018-11-26T11:55:26.813Z,25.37
2018-11-26T11:57:55.103Z,25.12
2018-11-26T12:00:30.260Z,23.85
2018-11-26T12:02:59.373Z,25.00
2018-11-26T12:05:27.705Z,25.05
2018-11-26T12:07:55.968Z,24.80
2018-11-26T12:10:24.321Z,26.10
2018-11-26T12:12:52.624Z,24.35
2018-11-26T12:15:20.889Z,24.52
2018-11-26T12:17:49.499Z,23.00
2018-11-26T12:20:17.817Z,23.75
2018-11-26T12:22:46.496Z,24.75
2018-11-26T12:25:16.673Z,25.50
2018-11-26T12:27:44.973Z,23.52
2018-11-26T12:30:15.516Z,24.32
2018-11-26T12:32:43.782Z,23.52
2018-11-26T12:35:12.098Z,23.52
2018-11-26T12:37:40.445Z,22.75
2018-11-26T12:40:13.361Z,24.60
2018-11-26T12:42:41.734Z,25.00
2018-11-26T12:45:14.463Z,23.65
2018-11-26T12:47:42.757Z,24.60
2018-11-26T12:50:11.208Z,23.80
2018-11-26T12:52:39.840Z,24.55
2018-11-26T12:55:10.270Z,21.35
2018-11-26T12:57:39.669Z,23.77
2018-11-26T13:00:16.016Z,23.00
2018-11-26T13:02:45.297Z,29.95
2018-11-26T13:05:15.022Z,24.57
2018-11-26T13:07:43.321Z,44.13
2018-11-26T13:10:15.657Z,23.60
2018-11-26T13:12:44.578Z,23.77
2018-11-26T13:15:14.893Z,25.25
2018-11-26T13:17:43.322Z,23.20
2018-11-26T13:20:13.962Z,24.27
2018-11-26T13:22:42.738Z,23.35
2018-11-26T13:25:12.434Z,23.75
2018-11-26T13:27:43.086Z,24.00
2018-11-26T13:30:13.989Z,24.80
2018-11-26T13:32:43.094Z,23.40
2018-11-26T13:35:12.564Z,23.50
2018-11-26T13:37:40.885Z,23.02
2018-11-26T13:40:13.467Z,22.50
2018-11-26T13:42:41.925Z,23.02
2018-11-26T13:45:16.532Z,21.97
2018-11-26T13:47:45.040Z,22.40
2018-11-26T13:50:15.895Z,22.87
2018-11-26T13:52:44.305Z,22.13
2018-11-26T13:55:12.902Z,22.85
2018-11-26T13:57:41.151Z,22.77
2018-11-26T14:00:11.793Z,23.85
2018-11-26T14:02:40.050Z,22.42
2018-11-26T14:05:12.289Z,23.18
2018-11-26T14:07:40.609Z,22.25
2018-11-26T14:10:16.187Z,22.13
2018-11-26T14:12:45.147Z,22.73
2018-11-26T14:15:14.466Z,23.95
2018-11-26T14:17:42.777Z,23.27
2018-11-26T14:20:14.378Z,22.27
2018-11-26T14:22:42.711Z,21.27
2018-11-26T14:25:13.214Z,20.10
2018-11-26T14:27:42.032Z,20.27
2018-11-26T14:30:19.577Z,20.92
2018-11-26T14:32:47.914Z,18.75
2018-11-26T14:35:16.194Z,18.75
2018-11-26T14:37:45.233Z,19.52
2018-11-26T14:40:15.502Z,19.12
2018-11-26T14:42:43.766Z,18.32
2018-11-26T14:45:13.014Z,18.70
2018-11-26T14:47:41.505Z,19.40
2018-11-26T14:50:11.231Z,18.20
2018-11-26T14:52:39.631Z,19.37
2018-11-26T14:55:11.130Z,19.10
2018-11-26T14:57:39.357Z,18.75
2018-11-26T15:00:11.217Z,18.50
2018-11-26T15:02:39.610Z,18.77
2018-11-26T15:05:07.925Z,18.90
2018-11-26T15:07:36.161Z,19.95
2018-11-26T15:10:06.120Z,17.90
2018-11-26T15:12:34.460Z,18.95
2018-11-26T15:15:02.803Z,18.67
2018-11-26T15:17:31.399Z,17.23
2018-11-26T15:20:01.226Z,17.40
2018-11-26T15:22:29.584Z,16.93
2018-11-26T15:24:57.829Z,18.77
2018-11-26T15:27:26.062Z,17.35
2018-11-26T15:29:54.329Z,16.62
2018-11-26T15:32:22.746Z,17.95
2018-11-26T15:34:51.039Z,17.05
2018-11-26T15:37:19.330Z,17.77
2018-11-26T15:39:48.281Z,18.10
2018-11-26T15:42:16.548Z,18.42
2018-11-26T15:44:44.813Z,19.23
2018-11-26T15:47:13.125Z,17.85
2018-11-26T15:49:42.299Z,18.45
2018-11-26T15:52:10.339Z,18.15
2018-11-26T15:54:38.644Z,16.93
2018-11-26T15:57:07.228Z,18.73
2018-11-26T15:59:35.596Z,21.70
2018-11-26T16:02:03.846Z,17.25
2018-11-26T16:04:32.232Z,17.50
2018-11-26T16:07:00.532Z,17.95
2018-11-26T16:09:28.755Z,17.98
2018-11-26T16:11:57.031Z,17.50
2018-11-26T16:14:25.326Z,17.10
2018-11-26T16:16:53.719Z,17.37
2018-11-26T16:19:22.011Z,17.57
2018-11-26T16:21:50.583Z,17.62
2018-11-26T16:24:18.839Z,19.17
2018-11-26T16:26:47.123Z,17.45
2018-11-26T16:29:15.491Z,17.05
2018-11-26T16:31:43.929Z,17.95
2018-11-26T16:34:12.467Z,17.25
2018-11-26T16:36:41.150Z,18.17
2018-11-26T16:39:10.703Z,17.25
2018-11-26T16:41:38.910Z,18.00
2018-11-26T16:44:07.255Z,16.80
2018-11-26T16:46:35.519Z,16.87
2018-11-26T16:49:03.760Z,17.37
2018-11-26T16:51:32.038Z,18.17
2018-11-26T16:59:46.988Z,17.12
2018-11-26T17:02:15.251Z,16.95
2018-11-26T17:04:43.576Z,17.87
2018-11-26T17:07:11.835Z,16.07
2018-11-26T17:09:40.123Z,16.80
2018-11-26T17:12:08.371Z,16.15
2018-11-26T17:14:36.642Z,17.87
2018-11-26T17:17:04.945Z,18.37
2018-11-26T17:19:33.215Z,18.98
2018-11-26T17:22:01.906Z,20.82
2018-11-26T17:24:30.234Z,19.90
2018-11-26T17:30:13.675Z,20.77
2018-11-26T17:32:42.200Z,21.55
2018-11-26T17:35:12.890Z,22.52
2018-11-26T17:37:42.965Z,20.95
2018-11-26T17:40:25.551Z,21.90
2018-11-26T17:42:54.506Z,21.20
2018-11-26T17:45:23.606Z,22.37
2018-11-26T17:47:54.935Z,23.07
2018-11-26T17:50:28.808Z,22.00
2018-11-26T17:52:57.353Z,22.27
2018-11-26T17:55:25.731Z,22.93
2018-11-26T17:57:54.172Z,22.48
2018-11-26T18:00:30.692Z,23.20
2018-11-26T18:02:59.229Z,22.93
2018-11-26T18:05:29.032Z,22.30
2018-11-26T18:08:01.303Z,23.22
2018-11-26T18:10:29.639Z,23.22
2018-11-26T18:12:58.009Z,23.20
2018-11-26T18:15:26.524Z,22.35
2018-11-26T18:17:54.890Z,22.48
2018-11-26T18:20:23.338Z,22.32
2018-11-26T18:22:53.064Z,23.02
2018-11-26T18:25:22.019Z,24.07
2018-11-26T18:27:52.202Z,23.42
2018-11-26T18:30:25.605Z,22.58
2018-11-26T18:32:53.916Z,24.37
2018-11-26T18:35:22.261Z,22.67
2018-11-26T18:37:50.599Z,22.87
2018-11-26T18:40:18.976Z,22.65
2018-11-26T18:42:47.402Z,21.90
2018-11-26T18:45:17.266Z,23.35
2018-11-26T18:47:47.162Z,21.57
2018-11-26T18:50:18.793Z,22.50
2018-11-26T18:52:47.867Z,24.43
2018-11-26T18:55:16.214Z,22.20
2018-11-26T18:57:44.558Z,23.85
2018-11-26T19:00:22.013Z,24.18
2018-11-26T19:02:50.839Z,24.50
2018-11-26T19:05:19.777Z,25.40
2018-11-26T19:07:48.177Z,25.60
2018-11-26T19:10:18.931Z,24.72
2018-11-26T19:12:50.046Z,24.57
2018-11-26T19:15:20.945Z,22.05
2018-11-26T19:17:50.345Z,24.10
2018-11-26T19:20:18.671Z,22.07
2018-11-26T19:22:47.104Z,24.12
2018-11-26T19:25:17.279Z,23.95
2018-11-26T19:27:45.647Z,23.02
2018-11-26T19:30:15.789Z,22.82
2018-11-26T19:32:45.439Z,24.32
2018-11-26T19:35:14.934Z,24.00
2018-11-26T19:37:43.353Z,22.67
2018-11-26T19:40:13.219Z,22.07
2018-11-26T19:42:42.835Z,42.30
2018-11-26T19:45:14.671Z,24.67
2018-11-26T19:47:43.883Z,25.95
2018-11-26T19:50:13.545Z,23.98
2018-11-26T19:52:42.295Z,23.38
2018-11-26T19:55:16.318Z,22.98
2018-11-26T19:57:44.643Z,22.90
2018-11-26T20:00:22.873Z,23.67
2018-11-26T20:02:54.477Z,23.10
2018-11-26T20:05:29.846Z,23.45
2018-11-26T20:07:58.898Z,24.05
2018-11-26T20:10:27.443Z,25.85
2018-11-26T20:12:56.133Z,23.38
2018-11-26T20:15:25.183Z,23.40
2018-11-26T20:17:58.926Z,24.18
2018-11-26T20:20:22.890Z,22.67
2018-11-26T20:22:52.489Z,22.62
2018-11-26T20:25:21.142Z,23.57
2018-11-26T20:27:49.999Z,25.00
2018-11-26T20:30:18.450Z,22.80
2018-11-26T20:32:47.583Z,24.35
2018-11-26T20:35:16.009Z,23.60
2018-11-26T20:37:44.456Z,22.93
2018-11-26T20:40:14.383Z,22.35
2018-11-26T20:42:50.610Z,23.75
2018-11-26T20:45:19.281Z,23.15
2018-11-26T20:47:48.939Z,23.52
2018-11-26T20:50:25.079Z,24.43
2018-11-26T20:52:54.139Z,24.98
2018-11-26T20:55:23.933Z,23.75
2018-11-26T20:57:53.972Z,22.13
2018-11-26T21:00:24.822Z,23.57
2018-11-26T21:02:55.681Z,24.00
2018-11-26T21:05:24.552Z,24.00
2018-11-26T21:07:53.753Z,24.27
2018-11-26T21:10:25.532Z,24.40
2018-11-26T21:12:54.132Z,22.80
2018-11-26T21:15:23.610Z,25.45
2018-11-26T21:17:53.471Z,22.65
2018-11-26T21:20:38.905Z,23.02
2018-11-26T21:23:10.155Z,22.62
2018-11-26T21:25:39.069Z,23.75
2018-11-26T21:28:08.079Z,24.70
2018-11-26T21:30:36.810Z,23.80
2018-11-26T21:33:05.961Z,23.07
2018-11-26T21:35:34.568Z,23.83
2018-11-26T21:38:02.964Z,24.12
2018-11-26T21:40:31.405Z,23.67
2018-11-26T21:43:00.604Z,22.60
2018-11-26T21:45:32.363Z,22.42
2018-11-26T21:48:00.698Z,22.75
2018-11-26T21:50:29.014Z,23.22
2018-11-26T21:52:57.407Z,22.87
2018-11-26T21:55:25.750Z,23.62
2018-11-26T22:03:36.405Z,23.10
2018-11-26T22:06:11.391Z,22.10
2018-11-26T22:08:39.778Z,22.48
2018-11-26T22:11:08.157Z,23.07
2018-11-26T22:13:36.528Z,22.42
2018-11-26T22:16:05.033Z,22.77
2018-11-26T22:18:33.439Z,22.70
2018-11-26T22:21:01.757Z,23.20
2018-11-26T22:23:30.070Z,23.85
2018-11-26T22:25:58.454Z,21.93
2018-11-26T22:28:26.902Z,22.37
2018-11-26T22:30:55.308Z,23.95
2018-11-26T22:33:23.697Z,23.67
2018-11-26T22:35:58.573Z,23.12
2018-11-26T22:38:27.009Z,21.65
2018-11-26T22:40:55.427Z,23.00
2018-11-26T22:43:23.731Z,22.75
2018-11-26T22:45:52.073Z,23.80
2018-11-26T22:48:20.500Z,24.12
2018-11-26T22:50:48.881Z,22.90
2018-11-26T22:53:17.353Z,23.52
2018-11-26T22:55:45.710Z,23.73
2018-11-26T22:58:14.885Z,23.00
2018-11-26T23:00:59.226Z,22.77
2018-11-26T23:03:27.646Z,25.62
2018-11-26T23:05:56.072Z,24.75
2018-11-26T23:08:24.462Z,23.30
2018-11-26T23:10:52.880Z,24.30
2018-11-26T23:13:21.351Z,25.12
2018-11-26T23:15:49.703Z,24.00
2018-11-26T23:18:18.064Z,23.95
2018-11-26T23:20:46.448Z,23.05
2018-11-26T23:23:14.762Z,23.22
2018-11-26T23:25:43.061Z,24.40
2018-11-26T23:28:11.340Z,23.73
2018-11-26T23:30:39.678Z,23.55
2018-11-26T23:33:08.499Z,23.10
2018-11-26T23:35:36.910Z,23.67
2018-11-26T23:38:05.408Z,23.83
2018-11-26T23:40:34.239Z,23.57
2018-11-26T23:43:02.206Z,24.02
2018-11-26T23:45:30.586Z,23.22
2018-11-26T23:47:59.117Z,25.00
2018-11-26T23:50:27.495Z,24.20
2018-11-26T23:52:55.937Z,24.27
2018-11-26T23:55:24.786Z,26.30
2018-11-26T23:57:53.117Z,26.07
